Terminal Aerodrome Forecast
Issued by NWS Sterling, VA

Current Version | Previous Version | Text Only | Print | Product List | Glossary Off
Versions: 1 2 3 4 5 6 7 8 9 10 11 12 13 14 15 16 17 18 19 20 21 22

944
FTUS41 KLWX 241720
TAFDCA
TAF
KDCA 241720Z 2418/2518 30012G20KT P6SM SCT050 SCT250
     FM242300 29006KT P6SM SCT050 SCT250
     FM250900 33004KT P6SM FEW050 SCT250
     FM251500 31009G16KT P6SM SCT060=

USA.gov is the U.S. government's official web portal to all federal, state and local government web resources and services.